Time;durP1;ratioP1;P1;durP2;ratioP2;P2;SDS_P1;SDS_P2;PMS_P1;PMS_P2;Temp;Humidity;BMP_temperature;BMP_pressure;BME280_temperature;BME280_humidity;BME280_pressure;Samples;Min_cycle;Max_cycle;Signal;HPM_P1;HPM_P2
2021/04/04 00:01:36;;;;;;;2.95;1.92;;;;;;;;;;5055812;28;20501;-59
2021/04/04 00:04:28;;;;;;;8.98;3.47;;;;;;;;;;5038261;28;20036;-59
2021/04/04 00:07:06;;;;;;;5.68;2.88;;;;;;;;;;5056066;28;20455;-59
2021/04/04 00:09:54;;;;;;;4.60;1.95;;;;;;;;;;5055761;28;20021;-59
2021/04/04 00:15:34;;;;;;;6.13;2.22;;;;;;;;;;5030658;28;20104;-59
2021/04/04 00:18:12;;;;;;;6.28;2.63;;;;;;;;;;5035552;28;20053;-59
2021/04/04 00:23:57;;;;;;;5.63;2.72;;;;;;;;;;5021344;28;20021;-60
2021/04/04 00:30:07;;;;;;;10.00;2.35;;;;;;;;;;5033830;28;20033;-59
2021/04/04 00:32:39;;;;;;;6.15;3.05;;;;;;;;;;5032826;28;20037;-59
2021/04/04 00:35:21;;;;;;;4.85;2.60;;;;;;;;;;4984191;28;20061;-59
2021/04/04 00:38:19;;;;;;;4.35;2.25;;;;;;;;;;5017100;28;20072;-60
2021/04/04 00:41:09;;;;;;;3.70;2.15;;;;;;;;;;5034756;28;20030;-59
2021/04/04 00:43:59;;;;;;;6.20;2.42;;;;;;;;;;5035283;28;20040;-59
2021/04/04 00:46:35;;;;;;;3.95;2.42;;;;;;;;;;5016991;28;20052;-59
2021/04/04 00:49:19;;;;;;;10.45;3.05;;;;;;;;;;5035384;28;20088;-59
2021/04/04 00:51:51;;;;;;;4.50;2.65;;;;;;;;;;5016913;28;20033;-59
2021/04/04 00:54:38;;;;;;;3.40;2.42;;;;;;;;;;5034563;28;20029;-59
2021/04/04 00:57:10;;;;;;;5.22;2.80;;;;;;;;;;5017396;28;20108;-59
2021/04/04 00:59:39;;;;;;;4.45;2.30;;;;;;;;;;5035427;28;20056;-59
2021/04/04 01:02:13;;;;;;;11.48;2.30;;;;;;;;;;5034526;28;20021;-59
2021/04/04 01:05:01;;;;;;;5.93;2.78;;;;;;;;;;5035136;28;20045;-59
2021/04/04 01:07:42;;;;;;;3.92;2.03;;;;;;;;;;5034655;28;20360;-59
2021/04/04 01:10:28;;;;;;;4.13;2.80;;;;;;;;;;5021480;28;20112;-59
2021/04/04 01:13:14;;;;;;;3.63;2.22;;;;;;;;;;5034274;28;20040;-59
2021/04/04 01:15:52;;;;;;;9.70;3.00;;;;;;;;;;5055224;28;20029;-60
2021/04/04 01:18:35;;;;;;;4.32;2.75;;;;;;;;;;5054277;28;20467;-59
2021/04/04 01:21:10;;;;;;;9.98;2.35;;;;;;;;;;5054475;28;20021;-59
2021/04/04 01:23:53;;;;;;;8.35;2.78;;;;;;;;;;5030600;28;20075;-60
2021/04/04 01:26:28;;;;;;;4.47;2.63;;;;;;;;;;5053053;28;20043;-60
2021/04/04 01:29:06;;;;;;;3.45;2.45;;;;;;;;;;5036288;28;20061;-59
2021/04/04 01:35:02;;;;;;;3.70;2.50;;;;;;;;;;5017287;28;20445;-59
2021/04/04 01:37:58;;;;;;;3.50;2.77;;;;;;;;;;5054471;28;20033;-59
2021/04/04 01:40:23;;;;;;;8.40;2.80;;;;;;;;;;5053134;28;20413;-59
2021/04/04 01:43:14;;;;;;;4.90;2.43;;;;;;;;;;5033525;28;20075;-59
2021/04/04 01:46:09;;;;;;;5.00;2.80;;;;;;;;;;5054148;28;20061;-59
2021/04/04 01:48:44;;;;;;;4.63;2.60;;;;;;;;;;5054203;28;20061;-59
2021/04/04 01:51:57;;;;;;;3.30;2.43;;;;;;;;;;5050845;28;20037;-60
2021/04/04 01:54:26;;;;;;;5.60;3.00;;;;;;;;;;5053270;28;20343;-60
2021/04/04 01:57:16;;;;;;;5.10;3.28;;;;;;;;;;5054205;28;20023;-59
2021/04/04 02:00:10;;;;;;;7.63;3.67;;;;;;;;;;5054524;28;20032;-59
2021/04/04 02:02:54;;;;;;;5.13;3.17;;;;;;;;;;5036492;28;20494;-59
2021/04/04 02:08:37;;;;;;;5.50;3.83;;;;;;;;;;4999865;28;20092;-59
2021/04/04 02:11:07;;;;;;;3.90;2.70;;;;;;;;;;5019303;28;20128;-59
2021/04/04 02:13:59;;;;;;;6.13;2.80;;;;;;;;;;5036746;28;20370;-58
2021/04/04 02:16:26;;;;;;;6.13;3.00;;;;;;;;;;5054145;28;20065;-59
2021/04/04 02:18:58;;;;;;;4.57;3.03;;;;;;;;;;5036652;28;20025;-59
2021/04/04 02:21:56;;;;;;;6.53;2.63;;;;;;;;;;5053088;28;20029;-59
2021/04/04 02:24:46;;;;;;;5.67;3.07;;;;;;;;;;5054360;28;20425;-59
2021/04/04 02:27:30;;;;;;;6.93;2.42;;;;;;;;;;5054419;28;20037;-59
2021/04/04 02:30:27;;;;;;;4.33;2.50;;;;;;;;;;5053607;28;20060;-59
2021/04/04 02:33:18;;;;;;;8.07;2.22;;;;;;;;;;5035534;28;20036;-59
2021/04/04 02:35:56;;;;;;;12.13;2.67;;;;;;;;;;5053470;28;20025;-59
2021/04/04 02:41:34;;;;;;;;;;;;;;;;;;;;;
2021/04/04 02:44:08;;;;;;;4.35;3.08;;;;;;;;;;5050653;28;20108;-59
2021/04/04 02:47:04;;;;;;;;;;;;;;;;;;;;;
2021/04/04 02:49:43;;;;;;;5.53;2.40;;;;;;;;;;5053343;28;20033;-59
2021/04/04 02:52:22;;;;;;;3.57;1.73;;;;;;;;;;5053154;28;20037;-59
2021/04/04 02:55:10;;;;;;;5.33;2.67;;;;;;;;;;5053306;28;20033;-59
2021/04/04 02:58:13;;;;;;;10.53;3.13;;;;;;;;;;5039560;28;20041;-59
2021/04/04 03:01:07;;;;;;;5.17;2.17;;;;;;;;;;5054257;28;20469;-59
2021/04/04 03:03:43;;;;;;;3.60;2.77;;;;;;;;;;5035933;28;20029;-59
2021/04/04 03:06:31;;;;;;;3.90;2.17;;;;;;;;;;5056919;28;20037;-59
2021/04/04 03:09:04;;;;;;;5.47;2.53;;;;;;;;;;5057211;28;20033;-59
2021/04/04 03:11:34;;;;;;;9.43;2.30;;;;;;;;;;5038874;28;20045;-59
2021/04/04 03:14:07;;;;;;;4.60;2.80;;;;;;;;;;5055833;28;20098;-59
2021/04/04 03:16:38;;;;;;;6.15;2.28;;;;;;;;;;5057774;28;20036;-59
2021/04/04 03:22:21;;;;;;;5.20;2.38;;;;;;;;;;4983537;28;20070;-59
2021/04/04 03:25:17;;;;;;;4.88;2.00;;;;;;;;;;4977971;28;20034;-59
2021/04/04 03:27:57;;;;;;;5.63;3.07;;;;;;;;;;4995866;28;20046;-59
2021/04/04 03:30:53;;;;;;;4.93;3.60;;;;;;;;;;4995158;28;20046;-59
2021/04/04 03:33:27;;;;;;;3.30;2.50;;;;;;;;;;4978468;28;20030;-59
2021/04/04 03:36:14;;;;;;;5.57;2.73;;;;;;;;;;4995524;28;20504;-59
2021/04/04 03:38:46;;;;;;;3.50;2.60;;;;;;;;;;4994864;28;20034;-59
2021/04/04 03:41:30;;;;;;;9.63;2.83;;;;;;;;;;4995172;28;20388;-59
2021/04/04 03:44:06;;;;;;;4.20;2.10;;;;;;;;;;4995332;28;20041;-59
2021/04/04 03:46:51;;;;;;;6.88;2.53;;;;;;;;;;5016947;28;20044;-59
2021/04/04 03:49:44;;;;;;;5.30;2.93;;;;;;;;;;5055300;28;20041;-59
2021/04/04 03:52:30;;;;;;;7.60;3.03;;;;;;;;;;5055991;28;20055;-59
2021/04/04 03:55:44;;;;;;;;;;;;;;;;;;;;;
2021/04/04 03:58:24;;;;;;;7.23;2.30;;;;;;;;;;5056399;28;20025;-58
2021/04/04 04:00:56;;;;;;;3.50;2.53;;;;;;;;;;5037114;28;20029;-59
2021/04/04 04:03:31;;;;;;;3.27;1.90;;;;;;;;;;5056354;28;20268;-59
2021/04/04 04:06:37;;;;;;;6.27;2.37;;;;;;;;;;5037452;28;20029;-59
2021/04/04 04:12:09;;;;;;;4.43;2.27;;;;;;;;;;5030560;28;20476;-58
2021/04/04 04:14:40;;;;;;;6.83;3.40;;;;;;;;;;5035851;28;20079;-58
2021/04/04 04:17:28;;;;;;;;;;;;;;;;;;;;;
2021/04/04 04:23:40;;;;;;;2.95;2.00;;;;;;;;;;4974210;28;20027;-59
2021/04/04 04:26:16;;;;;;;3.53;2.25;;;;;;;;;;5028807;28;20123;-58
2021/04/04 04:28:52;;;;;;;5.80;2.33;;;;;;;;;;5035495;28;20515;-59
2021/04/04 04:31:32;;;;;;;6.13;2.63;;;;;;;;;;5034675;28;20472;-58
2021/04/04 04:34:01;;;;;;;3.90;2.37;;;;;;;;;;5033723;28;20025;-58
2021/04/04 04:36:38;;;;;;;8.43;2.60;;;;;;;;;;5035256;28;20038;-59
2021/04/04 04:39:16;;;;;;;3.27;1.93;;;;;;;;;;5035135;28;20036;-59
2021/04/04 04:42:11;;;;;;;4.00;2.80;;;;;;;;;;5035504;28;20025;-58
2021/04/04 04:44:51;;;;;;;8.10;2.80;;;;;;;;;;5033609;28;20120;-59
2021/04/04 04:47:26;;;;;;;6.15;2.45;;;;;;;;;;5033303;28;20037;-59
2021/04/04 04:50:11;;;;;;;3.07;2.03;;;;;;;;;;5018809;28;20490;-58
2021/04/04 04:55:36;;;;;;;4.23;3.03;;;;;;;;;;5035314;28;20112;-59
2021/04/04 04:58:09;;;;;;;7.90;2.57;;;;;;;;;;5033549;28;20156;-58
2021/04/04 05:01:06;;;;;;;4.13;2.15;;;;;;;;;;5033553;28;20467;-58
2021/04/04 05:03:35;;;;;;;3.80;2.47;;;;;;;;;;5013170;28;20463;-58
2021/04/04 05:06:28;;;;;;;9.90;2.70;;;;;;;;;;5012813;28;20165;-59
2021/04/04 05:09:13;;;;;;;3.63;2.63;;;;;;;;;;4991171;28;20522;-58
2021/04/04 05:12:04;;;;;;;8.57;2.80;;;;;;;;;;4996114;28;20412;-58
2021/04/04 05:14:40;;;;;;;;;;;;;;;;;;;;;
2021/04/04 05:17:16;;;;;;;5.83;2.90;;;;;;;;;;5012885;28;20395;-58
2021/04/04 05:20:10;;;;;;;5.60;3.30;;;;;;;;;;4998170;28;20057;-59
2021/04/04 05:22:36;;;;;;;4.50;2.10;;;;;;;;;;5011876;28;20029;-58
2021/04/04 05:25:21;;;;;;;3.08;2.25;;;;;;;;;;5013169;28;20432;-58
2021/04/04 05:28:23;;;;;;;9.43;3.37;;;;;;;;;;5023528;28;20038;-58
2021/04/04 05:31:25;;;;;;;4.93;2.65;;;;;;;;;;5033106;28;20025;-59
2021/04/04 05:33:54;;;;;;;4.55;2.53;;;;;;;;;;5031069;28;20376;-59
2021/04/04 05:36:57;;;;;;;7.95;3.47;;;;;;;;;;5013288;28;20120;-58
2021/04/04 05:39:40;;;;;;;5.53;3.67;;;;;;;;;;5017200;28;20095;-58
2021/04/04 05:42:15;;;;;;;6.10;3.90;;;;;;;;;;5033131;28;20091;-58
2021/04/04 05:45:18;;;;;;;6.68;4.20;;;;;;;;;;5033322;28;20025;-59
2021/04/04 05:48:10;;;;;;;8.45;4.15;;;;;;;;;;5015743;28;20033;-59
2021/04/04 05:51:12;;;;;;;7.25;4.50;;;;;;;;;;5024656;28;20037;-59
2021/04/04 05:54:11;;;;;;;6.75;4.38;;;;;;;;;;5034297;28;20041;-59
2021/04/04 06:00:04;;;;;;;6.72;4.20;;;;;;;;;;5025404;28;20420;-59
2021/04/04 06:02:54;;;;;;;5.88;4.22;;;;;;;;;;5016576;28;20021;-59
2021/04/04 06:08:48;;;;;;;10.55;4.45;;;;;;;;;;5034122;28;20103;-59
2021/04/04 06:11:35;;;;;;;3.92;3.28;;;;;;;;;;5022700;28;20067;-59
2021/04/04 06:14:26;;;;;;;5.38;2.40;;;;;;;;;;5034943;28;20538;-59
2021/04/04 06:17:23;;;;;;;;;;;;;;;;;;;;;
2021/04/04 06:20:18;;;;;;;3.90;2.15;;;;;;;;;;5038792;28;20033;-59
2021/04/04 06:22:56;;;;;;;8.30;3.20;;;;;;;;;;5053493;28;20132;-59
2021/04/04 06:25:43;;;;;;;3.58;1.98;;;;;;;;;;5035521;28;20025;-59
2021/04/04 06:28:31;;;;;;;4.88;2.50;;;;;;;;;;5035823;28;20037;-59
2021/04/04 06:34:08;;;;;;;6.65;3.03;;;;;;;;;;5045396;28;20107;-59
2021/04/04 06:37:13;;;;;;;8.13;2.42;;;;;;;;;;5053509;28;20017;-59
2021/04/04 06:39:58;;;;;;;7.28;2.95;;;;;;;;;;4986976;28;20456;-59
2021/04/04 06:42:49;;;;;;;4.22;3.72;;;;;;;;;;5039242;28;20417;-59
2021/04/04 06:45:42;;;;;;;13.15;4.43;;;;;;;;;;5057714;28;20017;-59
2021/04/04 06:48:29;;;;;;;7.20;5.32;;;;;;;;;;5056700;28;20040;-59
2021/04/04 06:51:51;;;;;;;7.38;4.40;;;;;;;;;;5056605;28;20029;-59
2021/04/04 06:54:44;;;;;;;4.93;4.38;;;;;;;;;;4956354;29;20035;-59
2021/04/04 06:57:32;;;;;;;7.75;5.55;;;;;;;;;;4941255;29;20058;-59
2021/04/04 07:00:41;;;;;;;;;;;;;;;;;;;;;
2021/04/04 07:03:23;;;;;;;5.63;4.88;;;;;;;;;;4979604;28;20033;-59
2021/04/04 07:06:22;;;;;;;5.32;4.63;;;;;;;;;;5056564;28;20095;-59
2021/04/04 07:09:00;;;;;;;8.50;5.38;;;;;;;;;;5037973;28;20041;-59
2021/04/04 07:14:44;;;;;;;6.35;5.10;;;;;;;;;;5056400;28;20048;-59
2021/04/04 07:17:33;;;;;;;7.20;4.70;;;;;;;;;;5056578;28;20047;-59
2021/04/04 07:20:45;;;;;;;8.02;4.78;;;;;;;;;;5056452;28;20033;-59
2021/04/04 07:23:46;;;;;;;9.80;5.65;;;;;;;;;;5057130;28;20052;-58
2021/04/04 07:32:27;;;;;;;7.15;4.20;;;;;;;;;;5056715;28;20059;-59
2021/04/04 07:35:18;;;;;;;4.95;3.72;;;;;;;;;;5056961;28;20035;-59
2021/04/04 07:37:56;;;;;;;6.70;3.83;;;;;;;;;;5041056;28;20060;-59
2021/04/04 07:40:49;;;;;;;6.80;4.18;;;;;;;;;;5038812;28;20102;-59
2021/04/04 07:43:32;;;;;;;8.25;5.05;;;;;;;;;;5037983;28;20024;-59
2021/04/04 07:49:24;;;;;;;6.47;4.10;;;;;;;;;;5041418;28;20041;-58
2021/04/04 07:52:12;;;;;;;13.98;5.15;;;;;;;;;;5037420;28;20037;-58
2021/04/04 07:54:48;;;;;;;6.63;4.20;;;;;;;;;;5037570;28;20037;-58
2021/04/04 07:57:46;;;;;;;7.00;3.55;;;;;;;;;;5056350;28;20029;-58
2021/04/04 08:00:37;;;;;;;5.53;3.47;;;;;;;;;;5055528;28;20060;-58
2021/04/04 08:03:06;;;;;;;4.93;3.03;;;;;;;;;;4985528;28;20077;-59
2021/04/04 08:05:57;;;;;;;6.05;4.43;;;;;;;;;;5013548;28;20388;-59
2021/04/04 08:08:34;;;;;;;5.20;3.90;;;;;;;;;;5013536;28;20089;-59
2021/04/04 08:11:38;;;;;;;8.65;4.18;;;;;;;;;;5013633;28;20054;-59
2021/04/04 08:14:15;;;;;;;9.73;4.95;;;;;;;;;;4955109;28;20081;-58
2021/04/04 08:20:45;;;;;;;;;;;;;;;;;;;;;
2021/04/04 08:23:30;;;;;;;6.38;5.03;;;;;;;;;;5009817;28;20369;-59
2021/04/04 08:26:34;;;;;;;8.27;4.28;;;;;;;;;;5013198;28;20081;-59
2021/04/04 08:29:41;;;;;;;10.70;4.50;;;;;;;;;;5013094;28;20070;-59
2021/04/04 08:32:15;;;;;;;7.05;4.03;;;;;;;;;;4916496;29;20364;-59
2021/04/04 08:34:58;;;;;;;7.50;4.35;;;;;;;;;;4951299;28;20255;-59
2021/04/04 08:37:48;;;;;;;;;;;;;;;;;;;;;
2021/04/04 08:40:18;;;;;;;9.25;5.65;;;;;;;;;;4974658;28;20055;-59
2021/04/04 08:42:58;;;;;;;7.38;4.72;;;;;;;;;;4957984;28;20484;-59
2021/04/04 08:46:00;;;;;;;8.15;4.55;;;;;;;;;;4958667;28;20487;-59
2021/04/04 08:48:37;;;;;;;5.50;4.57;;;;;;;;;;4957528;28;20043;-59
2021/04/04 08:51:12;;;;;;;6.95;3.88;;;;;;;;;;4973645;28;20447;-58
2021/04/04 08:54:01;;;;;;;10.43;3.80;;;;;;;;;;4973733;28;20038;-59
2021/04/04 08:56:36;;;;;;;7.75;4.65;;;;;;;;;;4981219;28;20041;-59
2021/04/04 08:59:20;;;;;;;5.68;3.35;;;;;;;;;;5016798;28;20025;-59
2021/04/04 09:02:07;;;;;;;7.63;3.97;;;;;;;;;;5017614;28;20041;-59
2021/04/04 09:04:48;;;;;;;6.68;3.38;;;;;;;;;;5034712;28;20032;-59
2021/04/04 09:07:33;;;;;;;4.25;2.90;;;;;;;;;;5034343;28;20060;-59
2021/04/04 09:10:13;;;;;;;7.32;4.22;;;;;;;;;;5035234;28;20374;-59
2021/04/04 09:12:55;;;;;;;5.70;3.80;;;;;;;;;;5031124;28;20052;-59
2021/04/04 09:15:52;;;;;;;6.10;3.35;;;;;;;;;;5054322;28;20039;-59
2021/04/04 09:18:34;;;;;;;6.65;3.63;;;;;;;;;;4978321;28;20033;-59
2021/04/04 09:21:09;;;;;;;6.63;3.20;;;;;;;;;;5055218;28;20017;-59
2021/04/04 09:23:41;;;;;;;7.80;4.22;;;;;;;;;;5036153;28;20020;-59
2021/04/04 09:26:27;;;;;;;3.70;2.85;;;;;;;;;;5054971;28;20032;-59
2021/04/04 09:29:12;;;;;;;4.65;2.55;;;;;;;;;;5035922;28;20033;-59
2021/04/04 09:31:58;;;;;;;6.53;3.33;;;;;;;;;;5035895;28;20025;-59
2021/04/04 09:34:29;;;;;;;5.32;2.40;;;;;;;;;;5036958;28;20107;-59
2021/04/04 09:36:58;;;;;;;;;;;;;;;;;;5054414;28;20033;-59
2021/04/04 09:39:50;;;;;;;4.10;2.47;;;;;;;;;;5035745;28;19950;-59
2021/04/04 09:42:21;;;;;;;3.53;2.53;;;;;;;;;;5049538;28;20033;-59
2021/04/04 09:45:07;;;;;;;4.95;1.95;;;;;;;;;;5054088;28;20035;-59
2021/04/04 09:47:39;;;;;;;2.58;1.40;;;;;;;;;;5051990;28;20033;-59
2021/04/04 09:50:28;;;;;;;3.17;1.70;;;;;;;;;;5053540;28;20032;-60
2021/04/04 09:53:00;;;;;;;5.90;1.60;;;;;;;;;;5035353;28;20060;-59
2021/04/04 09:55:38;;;;;;;5.40;1.45;;;;;;;;;;5053135;28;20053;-60
2021/04/04 09:58:14;;;;;;;3.10;1.40;;;;;;;;;;5053175;28;20057;-59
2021/04/04 10:00:43;;;;;;;5.47;1.77;;;;;;;;;;5033656;28;20033;-59
2021/04/04 10:03:18;;;;;;;5.72;2.05;;;;;;;;;;5034540;28;20087;-59
2021/04/04 10:05:58;;;;;;;2.53;1.63;;;;;;;;;;5053728;28;20021;-60
2021/04/04 10:08:30;;;;;;;2.90;1.92;;;;;;;;;;5052851;28;20067;-60
2021/04/04 10:11:23;;;;;;;2.97;1.95;;;;;;;;;;5034820;28;20434;-60
2021/04/04 10:17:14;;;;;;;4.43;2.65;;;;;;;;;;5044651;28;20041;-59
2021/04/04 10:19:59;;;;;;;3.78;2.45;;;;;;;;;;5053434;28;20040;-59
2021/04/04 10:22:33;;;;;;;3.60;2.33;;;;;;;;;;5035874;28;20036;-60
2021/04/04 10:25:08;;;;;;;3.95;1.98;;;;;;;;;;5053601;28;20025;-60
2021/04/04 10:27:57;;;;;;;4.75;2.63;;;;;;;;;;5052805;28;20405;-60
2021/04/04 10:30:27;;;;;;;5.00;2.38;;;;;;;;;;5034856;28;20052;-60
2021/04/04 10:32:56;;;;;;;3.70;2.40;;;;;;;;;;5035000;28;20037;-60
2021/04/04 10:35:42;;;;;;;6.25;3.45;;;;;;;;;;5052735;28;20356;-60
2021/04/04 10:38:19;;;;;;;6.97;2.63;;;;;;;;;;5053281;28;20125;-60
2021/04/04 10:40:48;;;;;;;5.28;2.88;;;;;;;;;;5034841;28;20525;-60
2021/04/04 10:43:25;;;;;;;3.30;2.15;;;;;;;;;;5053445;28;20029;-60
2021/04/04 10:46:00;;;;;;;3.22;1.95;;;;;;;;;;5034699;28;20151;-60
2021/04/04 10:48:33;;;;;;;8.18;3.40;;;;;;;;;;5052417;28;20055;-60
2021/04/04 10:51:04;;;;;;;3.35;2.20;;;;;;;;;;5034418;28;20367;-60
2021/04/04 10:53:30;;;;;;;;;;;;;;;;;;5035200;28;20036;-60
2021/04/04 10:56:02;;;;;;;4.50;2.15;;;;;;;;;;5052679;28;20365;-58
2021/04/04 10:58:38;;;;;;;5.97;2.58;;;;;;;;;;5034165;28;20025;-58
2021/04/04 11:01:10;;;;;;;3.75;2.45;;;;;;;;;;5034920;28;20090;-58
2021/04/04 11:03:43;;;;;;;3.22;1.83;;;;;;;;;;5034259;28;20044;-59
2021/04/04 11:06:13;;;;;;;3.10;2.03;;;;;;;;;;5052137;28;20028;-59
2021/04/04 11:08:45;;;;;;;3.20;1.70;;;;;;;;;;5052262;28;20064;-59
2021/04/04 11:11:12;;;;;;;2.78;1.58;;;;;;;;;;5034509;28;20383;-59
2021/04/04 11:13:46;;;;;;;4.55;2.20;;;;;;;;;;5034148;28;20049;-59
2021/04/04 11:16:21;;;;;;;2.75;1.90;;;;;;;;;;5052694;28;20037;-59
2021/04/04 11:19:00;;;;;;;2.30;1.55;;;;;;;;;;5034909;28;20309;-59
2021/04/04 11:21:45;;;;;;;6.57;2.70;;;;;;;;;;5034923;28;20515;-58
2021/04/04 11:24:37;;;;;;;3.90;2.33;;;;;;;;;;5053084;28;20103;-58
2021/04/04 11:27:04;;;;;;;2.45;1.73;;;;;;;;;;5042526;28;20041;-59
2021/04/04 11:29:36;;;;;;;3.90;1.83;;;;;;;;;;5038343;28;20040;-59
2021/04/04 11:32:18;;;;;;;3.08;1.90;;;;;;;;;;5038263;28;20151;-58
2021/04/04 11:35:00;;;;;;;3.97;2.08;;;;;;;;;;5038200;28;20454;-58
2021/04/04 11:37:38;;;;;;;4.53;2.08;;;;;;;;;;5037678;28;20037;-58
2021/04/04 11:40:20;;;;;;;6.85;2.72;;;;;;;;;;5022410;28;20036;-59
2021/04/04 11:42:51;;;;;;;5.80;2.25;;;;;;;;;;5055938;28;20427;-59
2021/04/04 11:45:36;;;;;;;3.28;1.95;;;;;;;;;;5037584;28;20037;-59
2021/04/04 11:48:23;;;;;;;4.05;2.40;;;;;;;;;;5037780;28;20679;-59
2021/04/04 11:50:57;;;;;;;4.03;2.10;;;;;;;;;;5055434;28;20025;-59
2021/04/04 11:53:44;;;;;;;4.00;2.47;;;;;;;;;;5056338;28;20451;-59
2021/04/04 11:56:29;;;;;;;4.75;2.63;;;;;;;;;;5037736;28;20025;-59
2021/04/04 11:58:55;;;;;;;3.70;2.20;;;;;;;;;;5055711;28;20029;-59
2021/04/04 12:01:35;;;;;;;2.83;2.10;;;;;;;;;;5037181;28;20021;-59
2021/04/04 12:04:29;;;;;;;2.83;1.73;;;;;;;;;;5037782;28;20070;-59
2021/04/04 12:07:07;;;;;;;5.60;2.47;;;;;;;;;;5022316;28;20029;-59
2021/04/04 12:09:41;;;;;;;5.97;2.83;;;;;;;;;;5055290;28;20027;-59
2021/04/04 12:12:08;;;;;;;5.07;2.30;;;;;;;;;;5054666;28;20165;-59
2021/04/04 12:14:50;;;;;;;3.30;2.35;;;;;;;;;;5055127;28;20025;-59
2021/04/04 12:17:27;;;;;;;7.15;2.90;;;;;;;;;;5055467;28;20025;-59
2021/04/04 12:20:02;;;;;;;4.90;2.65;;;;;;;;;;5055117;28;20041;-59
2021/04/04 12:22:47;;;;;;;4.85;2.22;;;;;;;;;;5055617;28;20036;-59
2021/04/04 12:25:14;;;;;;;3.28;2.63;;;;;;;;;;5054977;28;20029;-59
2021/04/04 12:27:43;;;;;;;3.95;2.67;;;;;;;;;;5036888;28;20037;-59
2021/04/04 12:30:21;;;;;;;4.97;2.38;;;;;;;;;;5055219;28;20048;-59
2021/04/04 12:32:50;;;;;;;9.55;2.50;;;;;;;;;;5055272;28;20029;-59
2021/04/04 12:35:23;;;;;;;2.92;1.98;;;;;;;;;;5054665;28;20031;-59
2021/04/04 12:37:53;;;;;;;4.32;2.47;;;;;;;;;;5035805;28;20032;-59
2021/04/04 12:40:41;;;;;;;3.78;2.40;;;;;;;;;;5055036;28;20044;-59
2021/04/04 12:43:13;;;;;;;3.50;2.60;;;;;;;;;;5054502;28;20021;-59
2021/04/04 12:45:39;;;;;;;2.85;2.00;;;;;;;;;;5035452;28;20044;-59
2021/04/04 12:48:16;;;;;;;4.70;2.40;;;;;;;;;;5054344;28;20401;-59
2021/04/04 12:50:57;;;;;;;3.63;2.35;;;;;;;;;;5036514;28;20509;-59
2021/04/04 12:53:25;;;;;;;4.30;2.47;;;;;;;;;;5038147;28;20100;-59
2021/04/04 12:56:04;;;;;;;5.38;2.80;;;;;;;;;;5054494;28;20092;-59
2021/04/04 12:58:33;;;;;;;5.53;2.58;;;;;;;;;;5054128;28;20386;-59
2021/04/04 13:01:01;;;;;;;2.72;2.22;;;;;;;;;;5053959;28;20024;-59
2021/04/04 13:03:37;;;;;;;3.90;2.63;;;;;;;;;;5036296;28;20120;-59
2021/04/04 13:06:03;;;;;;;4.10;2.63;;;;;;;;;;5054547;28;20021;-59
2021/04/04 13:08:33;;;;;;;4.18;2.85;;;;;;;;;;5054156;28;20040;-59
2021/04/04 13:11:13;;;;;;;6.05;2.75;;;;;;;;;;5036892;28;20032;-59
2021/04/04 13:13:43;;;;;;;4.68;2.58;;;;;;;;;;5037163;28;20072;-59
2021/04/04 13:16:18;;;;;;;4.95;2.05;;;;;;;;;;5036061;28;20041;-59
2021/04/04 13:18:48;;;;;;;4.57;2.80;;;;;;;;;;5053822;28;20029;-59
2021/04/04 13:21:14;;;;;;;4.85;2.65;;;;;;;;;;5053937;28;20021;-59
2021/04/04 13:23:42;;;;;;;8.63;2.25;;;;;;;;;;5054790;28;20032;-59
2021/04/04 13:26:17;;;;;;;4.88;2.20;;;;;;;;;;5036116;28;20029;-59
2021/04/04 13:28:46;;;;;;;2.97;1.75;;;;;;;;;;5035910;28;20098;-59
2021/04/04 13:31:21;;;;;;;4.05;1.95;;;;;;;;;;5053391;28;20375;-59
2021/04/04 13:34:06;;;;;;;4.03;2.78;;;;;;;;;;5053544;28;20079;-59
2021/04/04 13:36:32;;;;;;;4.75;2.63;;;;;;;;;;5036491;28;20025;-59
2021/04/04 13:39:01;;;;;;;2.88;1.98;;;;;;;;;;5053684;28;20048;-59
2021/04/04 13:41:37;;;;;;;3.75;2.20;;;;;;;;;;5053811;28;20028;-59
2021/04/04 13:44:15;;;;;;;4.57;3.05;;;;;;;;;;5035845;28;20028;-59
2021/04/04 13:46:54;;;;;;;3.67;2.20;;;;;;;;;;5053719;28;20021;-58
2021/04/04 13:49:33;;;;;;;3.83;2.20;;;;;;;;;;5019437;28;20025;-59
2021/04/04 13:52:35;;;;;;;3.60;2.85;;;;;;;;;;5018904;28;20049;-59
2021/04/04 13:55:04;;;;;;;4.28;2.10;;;;;;;;;;4953013;28;20493;-59
2021/04/04 13:57:39;;;;;;;2.50;1.95;;;;;;;;;;5035417;28;20419;-59
2021/04/04 14:00:13;;;;;;;4.97;2.40;;;;;;;;;;5053485;28;20068;-59
2021/04/04 14:02:43;;;;;;;2.83;2.22;;;;;;;;;;5052618;28;20044;-59
2021/04/04 14:05:35;;;;;;;2.88;2.17;;;;;;;;;;5035098;28;20097;-59
2021/04/04 14:08:09;;;;;;;4.22;2.78;;;;;;;;;;5041898;28;20056;-59
2021/04/04 14:10:42;;;;;;;3.58;2.42;;;;;;;;;;5035184;28;20443;-59
2021/04/04 14:13:16;;;;;;;5.22;2.75;;;;;;;;;;5051768;28;20136;-58
2021/04/04 14:15:56;;;;;;;3.63;1.92;;;;;;;;;;5036652;28;20083;-59
2021/04/04 14:18:31;;;;;;;4.60;2.43;;;;;;;;;;5035276;28;20025;-59
2021/04/04 14:21:15;;;;;;;9.55;3.38;;;;;;;;;;5035158;28;20539;-58
2021/04/04 14:23:50;;;;;;;8.68;2.97;;;;;;;;;;5035155;28;20324;-59
2021/04/04 14:26:16;;;;;;;6.03;3.30;;;;;;;;;;5053445;28;20028;-59
2021/04/04 14:28:45;;;;;;;4.10;2.33;;;;;;;;;;5034977;28;20037;-59
2021/04/04 14:31:11;;;;;;;5.38;2.60;;;;;;;;;;5052902;28;20029;-59
2021/04/04 14:33:38;;;;;;;3.97;2.85;;;;;;;;;;5035530;28;20029;-59
2021/04/04 14:36:19;;;;;;;5.68;2.97;;;;;;;;;;5035294;28;20112;-59
2021/04/04 14:38:59;;;;;;;;;;;;;;;;;;;;;
2021/04/04 14:41:31;;;;;;;3.60;2.38;;;;;;;;;;5053523;28;20025;-59
2021/04/04 14:44:26;;;;;;;3.42;2.50;;;;;;;;;;5052995;28;20029;-59
2021/04/04 14:46:55;;;;;;;4.22;2.55;;;;;;;;;;5021746;28;20029;-59
2021/04/04 14:49:21;;;;;;;3.10;2.30;;;;;;;;;;5053561;28;20037;-59
2021/04/04 14:51:59;;;;;;;7.68;2.63;;;;;;;;;;5018219;28;20029;-59
2021/04/04 14:54:30;;;;;;;5.82;2.53;;;;;;;;;;5036110;28;20036;-59
2021/04/04 14:57:05;;;;;;;3.53;2.25;;;;;;;;;;5034861;28;20021;-59
2021/04/04 14:59:34;;;;;;;3.83;2.85;;;;;;;;;;5053168;28;20033;-59
2021/04/04 15:02:10;;;;;;;3.10;1.95;;;;;;;;;;5037662;28;20029;-59
2021/04/04 15:04:39;;;;;;;4.50;2.72;;;;;;;;;;5039361;28;20094;-59
2021/04/04 15:07:14;;;;;;;3.97;2.30;;;;;;;;;;5056943;28;20032;-59
2021/04/04 15:09:42;;;;;;;4.18;2.38;;;;;;;;;;5039185;28;20526;-59
2021/04/04 15:12:09;;;;;;;4.13;2.78;;;;;;;;;;5056627;28;20442;-59
2021/04/04 15:14:37;;;;;;;3.08;2.13;;;;;;;;;;5038007;28;20056;-59
2021/04/04 15:17:07;;;;;;;3.33;2.30;;;;;;;;;;5038222;28;20079;-59
2021/04/04 15:19:36;;;;;;;5.13;1.98;;;;;;;;;;5038004;28;20036;-59
2021/04/04 15:22:03;;;;;;;5.25;2.70;;;;;;;;;;5039617;28;20086;-59
2021/04/04 15:24:37;;;;;;;5.22;1.88;;;;;;;;;;5056653;28;20028;-59
2021/04/04 15:27:07;;;;;;;3.55;2.55;;;;;;;;;;5056444;28;20033;-59
2021/04/04 15:32:37;;;;;;;5.15;2.40;;;;;;;;;;5042884;28;20170;-59
2021/04/04 15:35:06;;;;;;;5.50;2.58;;;;;;;;;;5022977;28;20032;-59
2021/04/04 15:37:37;;;;;;;3.65;1.63;;;;;;;;;;5037669;28;20107;-57
2021/04/04 15:40:20;;;;;;;5.55;2.85;;;;;;;;;;5038219;28;20033;-58
2021/04/04 15:42:50;;;;;;;3.35;2.00;;;;;;;;;;5038570;28;20078;-58
2021/04/04 15:45:22;;;;;;;3.70;2.20;;;;;;;;;;5055673;28;20029;-57
2021/04/04 15:47:49;;;;;;;3.08;1.80;;;;;;;;;;5056474;28;20369;-59
2021/04/04 15:50:28;;;;;;;3.53;2.22;;;;;;;;;;5056299;28;20025;-60
2021/04/04 15:52:55;;;;;;;3.88;2.03;;;;;;;;;;5055703;28;20025;-60
2021/04/04 15:55:30;;;;;;;4.68;2.70;;;;;;;;;;5037839;28;20066;-58
2021/04/04 15:58:07;;;;;;;2.80;1.77;;;;;;;;;;5056222;28;20029;-59
2021/04/04 16:00:33;;;;;;;3.72;2.20;;;;;;;;;;5021378;28;20040;-60
2021/04/04 16:03:02;;;;;;;5.72;3.05;;;;;;;;;;5037784;28;20550;-60
2021/04/04 16:05:33;;;;;;;3.67;2.45;;;;;;;;;;5055958;28;20029;-61
2021/04/04 16:08:00;;;;;;;7.45;2.42;;;;;;;;;;5037168;28;20033;-60
2021/04/04 16:10:37;;;;;;;5.55;2.50;;;;;;;;;;5055345;28;20021;-60
2021/04/04 16:13:08;;;;;;;3.78;2.20;;;;;;;;;;5054350;28;20131;-60
2021/04/04 16:15:52;;;;;;;5.28;2.00;;;;;;;;;;5055639;28;20366;-60
2021/04/04 16:18:18;;;;;;;3.63;2.00;;;;;;;;;;5037127;28;20025;-60
2021/04/04 16:20:50;;;;;;;3.90;2.25;;;;;;;;;;5055197;28;20066;-58
2021/04/04 16:23:17;;;;;;;8.25;1.85;;;;;;;;;;5037327;28;20033;-58
2021/04/04 16:25:46;;;;;;;4.82;2.30;;;;;;;;;;5055037;28;20036;-58
2021/04/04 16:28:12;;;;;;;4.15;2.55;;;;;;;;;;5036774;28;20037;-58
2021/04/04 16:30:42;;;;;;;5.30;2.53;;;;;;;;;;5055476;28;20021;-57
2021/04/04 16:33:14;;;;;;;5.10;2.72;;;;;;;;;;5037544;28;20033;-58
2021/04/04 16:35:47;;;;;;;3.97;2.33;;;;;;;;;;5055344;28;20111;-58
2021/04/04 16:38:16;;;;;;;8.00;3.22;;;;;;;;;;5055384;28;20078;-58
2021/04/04 16:40:42;;;;;;;3.75;2.45;;;;;;;;;;5054799;28;20040;-58
2021/04/04 16:43:09;;;;;;;4.15;2.25;;;;;;;;;;5055088;28;20056;-58
2021/04/04 16:45:45;;;;;;;3.40;2.55;;;;;;;;;;5054665;28;20095;-58
2021/04/04 16:48:18;;;;;;;8.07;2.47;;;;;;;;;;5055099;28;20037;-58
2021/04/04 16:50:56;;;;;;;3.42;2.08;;;;;;;;;;5054548;28;20044;-59
2021/04/04 16:53:24;;;;;;;4.47;2.38;;;;;;;;;;5054943;28;20348;-58
2021/04/04 16:55:57;;;;;;;5.05;2.55;;;;;;;;;;5054463;28;20029;-58
2021/04/04 16:58:25;;;;;;;4.32;2.03;;;;;;;;;;5054257;28;20057;-58
2021/04/04 17:01:03;;;;;;;7.22;2.65;;;;;;;;;;5036087;28;20040;-58
2021/04/04 17:03:45;;;;;;;2.67;1.98;;;;;;;;;;5036551;28;20112;-58
2021/04/04 17:06:17;;;;;;;6.65;2.38;;;;;;;;;;5036519;28;20029;-57
2021/04/04 17:08:43;;;;;;;4.50;2.63;;;;;;;;;;5054551;28;20044;-57
2021/04/04 17:11:10;;;;;;;3.53;2.50;;;;;;;;;;5054834;28;20029;-57